Terminal Aerodrome Forecast
Issued by NWS

Home | Current Version | Previous Version | Text Only | Print | Product List | Glossary Off
Versions: 1 2 3 4 5 6 7 8 9 10 11 12 13 14 15 16 17 18 19 20 21 22

000
FTUS43 KMPX 270500
TAFAXN
TAF
KAXN 270520Z 2706/2806 34007KT P6SM SKC
     FM271300 VRB03KT P6SM SCT200
     FM271800 17007KT P6SM BKN150
     FM280000 15010KT P6SM OVC060
     FM280400 14012KT 2SM -SN BKN015 OVC030=

USA.gov is the U.S. government's official web portal to all federal, state and local government web resources and services.